createdAt,value
2019-01-05T00:01:50.330Z,93.10
2019-01-05T00:04:36.890Z,93.10
2019-01-05T00:07:23.421Z,93.20
2019-01-05T00:10:10.025Z,93.20
2019-01-05T00:12:56.414Z,93.40
2019-01-05T00:15:32.474Z,93.60
2019-01-05T00:18:21.206Z,93.70
2019-01-05T00:21:03.621Z,93.70
2019-01-05T00:23:39.657Z,93.40
2019-01-05T00:26:26.017Z,93.20
2019-01-05T00:29:01.855Z,92.90
2019-01-05T00:31:50.509Z,92.90
2019-01-05T00:34:32.986Z,93.00
2019-01-05T00:37:09.137Z,93.20
2019-01-05T00:39:45.046Z,93.50
2019-01-05T00:42:26.902Z,93.70
2019-01-05T00:45:12.161Z,93.70
2019-01-05T00:47:57.756Z,93.60
2019-01-05T00:50:44.422Z,93.50
2019-01-05T00:53:30.650Z,93.50
2019-01-05T00:56:17.190Z,93.60
2019-01-05T00:59:02.265Z,93.60
2019-01-05T01:01:34.917Z,93.60
2019-01-05T01:04:14.258Z,93.80
2019-01-05T01:06:50.452Z,93.90
2019-01-05T01:09:29.329Z,94.00
2019-01-05T01:11:59.402Z,93.90
2019-01-05T01:14:38.738Z,93.70
2019-01-05T01:17:11.822Z,93.40
2019-01-05T01:19:56.993Z,93.20
2019-01-05T01:22:35.854Z,92.90
2019-01-05T01:25:22.342Z,92.80
2019-01-05T01:28:09.217Z,92.70
2019-01-05T01:30:39.237Z,92.60
2019-01-05T01:33:27.678Z,92.50
2019-01-05T01:36:09.541Z,92.50
2019-01-05T01:38:48.911Z,92.40
2019-01-05T01:41:27.834Z,92.30
2019-01-05T01:44:14.526Z,92.40
2019-01-05T01:46:56.605Z,92.70
2019-01-05T01:49:35.670Z,92.90
2019-01-05T01:52:08.374Z,92.70
2019-01-05T01:54:38.413Z,92.70
2019-01-05T01:57:25.893Z,92.70
2019-01-05T01:59:59.806Z,92.80
2019-01-05T02:02:32.818Z,92.80
2019-01-05T02:05:05.762Z,92.80
2019-01-05T02:07:38.722Z,92.80
2019-01-05T02:10:25.554Z,92.80
2019-01-05T02:13:01.466Z,92.80
2019-01-05T02:15:35.370Z,92.80
2019-01-05T02:18:14.458Z,92.80
2019-01-05T02:21:10.190Z,92.80
2019-01-05T02:24:04.081Z,92.90
2019-01-05T02:27:15.245Z,92.90
2019-01-05T02:30:03.582Z,93.00
2019-01-05T02:32:45.514Z,93.10
2019-01-05T02:35:42.986Z,93.30
2019-01-05T02:38:24.582Z,93.30
2019-01-05T02:41:20.746Z,93.40
2019-01-05T02:44:22.890Z,93.50
2019-01-05T02:47:10.350Z,93.50
2019-01-05T02:50:01.730Z,93.50
2019-01-05T02:52:52.982Z,93.50
2019-01-05T02:55:45.659Z,93.70
2019-01-05T02:58:47.256Z,93.80
2019-01-05T03:01:46.338Z,93.80
2019-01-05T03:04:37.056Z,93.90
2019-01-05T03:07:40.609Z,94.10
2019-01-05T03:10:31.099Z,94.20
2019-01-05T03:13:49.138Z,94.20
2019-01-05T03:16:34.078Z,94.10
2019-01-05T03:19:19.202Z,94.10
2019-01-05T03:22:15.247Z,94.10
2019-01-05T03:25:03.478Z,94.20
2019-01-05T03:27:58.198Z,94.30
2019-01-05T03:30:52.560Z,94.20
2019-01-05T03:33:40.555Z,94.10
2019-01-05T03:36:35.406Z,94.20
2019-01-05T03:39:44.613Z,94.30
2019-01-05T03:42:20.694Z,94.30
2019-01-05T03:45:20.982Z,94.20
2019-01-05T03:48:15.309Z,94.50
2019-01-05T03:51:14.251Z,94.40
2019-01-05T03:53:50.662Z,94.40
2019-01-05T03:57:02.789Z,94.60
2019-01-05T04:00:19.840Z,94.80
2019-01-05T04:03:14.208Z,94.70
2019-01-05T04:06:28.770Z,94.60
2019-01-05T04:09:23.327Z,94.80
2019-01-05T04:12:05.201Z,95.10
2019-01-05T04:15:05.830Z,95.20
2019-01-05T04:18:07.094Z,95.40
2019-01-05T04:20:58.062Z,95.40
2019-01-05T04:24:04.334Z,95.60
2019-01-05T04:26:59.968Z,96.00
2019-01-05T04:29:52.774Z,96.00
2019-01-05T04:32:37.834Z,95.90
2019-01-05T04:35:34.975Z,95.70
2019-01-05T04:38:24.970Z,95.70
2019-01-05T04:41:25.486Z,95.80
2019-01-05T04:44:48.369Z,95.70
2019-01-05T04:47:30.458Z,95.80
2019-01-05T04:50:27.185Z,96.00
2019-01-05T04:53:31.502Z,96.10
2019-01-05T04:56:27.643Z,96.30
2019-01-05T04:59:07.014Z,96.60
2019-01-05T05:02:05.615Z,96.50
2019-01-05T05:05:05.874Z,96.80
2019-01-05T05:07:56.975Z,96.70
2019-01-05T05:10:39.365Z,96.50
2019-01-05T05:13:36.478Z,96.60
2019-01-05T05:16:43.078Z,96.50
2019-01-05T05:19:37.581Z,96.40
2019-01-05T05:22:13.935Z,96.30
2019-01-05T05:25:26.894Z,96.30
2019-01-05T05:28:50.089Z,96.30
2019-01-05T05:32:01.322Z,96.30
2019-01-05T05:34:52.400Z,96.40
2019-01-05T05:37:56.945Z,96.30
2019-01-05T05:40:35.765Z,96.30
2019-01-05T05:43:53.570Z,96.30
2019-01-05T05:46:46.040Z,96.50
2019-01-05T05:49:41.810Z,96.60
2019-01-05T05:52:31.594Z,96.80
2019-01-05T05:55:33.033Z,97.10
2019-01-05T05:58:45.838Z,97.40
2019-01-05T06:01:44.818Z,97.70
2019-01-05T06:04:39.578Z,97.70
2019-01-05T06:07:53.687Z,97.70
2019-01-05T06:10:59.046Z,97.70
2019-01-05T06:13:51.240Z,97.70
2019-01-05T06:16:33.463Z,97.80
2019-01-05T06:19:34.658Z,97.50
2019-01-05T06:22:17.379Z,97.60
2019-01-05T06:24:59.831Z,97.90
2019-01-05T06:28:08.051Z,97.90
2019-01-05T06:31:06.529Z,97.90
2019-01-05T06:33:42.746Z,97.90
2019-01-05T06:36:32.657Z,98.00
2019-01-05T06:39:17.962Z,98.20
2019-01-05T06:42:11.818Z,98.20
2019-01-05T06:45:09.342Z,98.70
2019-01-05T06:47:56.826Z,98.60
2019-01-05T06:50:48.206Z,98.80
2019-01-05T06:53:56.348Z,99.00
2019-01-05T06:56:53.738Z,99.00
2019-01-05T06:59:59.773Z,99.30
2019-01-05T07:02:47.965Z,99.20
2019-01-05T07:05:55.930Z,99.20
2019-01-05T07:09:08.646Z,99.20
2019-01-05T07:11:59.759Z,99.20
2019-01-05T07:14:47.993Z,99.70
2019-01-05T07:17:42.610Z,99.80
2019-01-05T07:20:21.626Z,99.80
2019-01-05T07:23:25.010Z,99.80
2019-01-05T07:26:47.722Z,99.90
2019-01-05T07:29:58.186Z,99.90
2019-01-05T07:32:43.478Z,99.90
2019-01-05T07:35:37.469Z,99.90
2019-01-05T07:38:49.587Z,99.90
2019-01-05T07:41:56.126Z,99.90
2019-01-05T07:45:14.334Z,99.90
2019-01-05T07:48:30.503Z,99.90
2019-01-05T07:51:52.366Z,99.90
2019-01-05T07:54:58.998Z,99.90
2019-01-05T07:57:38.074Z,99.90
2019-01-05T08:00:46.282Z,99.90
2019-01-05T08:03:37.437Z,99.90
2019-01-05T08:06:37.933Z,99.90
2019-01-05T08:09:32.198Z,99.90
2019-01-05T08:12:22.008Z,99.90
2019-01-05T08:15:17.674Z,99.20
2019-01-05T08:18:24.623Z,98.60
2019-01-05T08:21:26.734Z,98.60
2019-01-05T08:24:42.586Z,98.20
2019-01-05T08:28:05.726Z,97.90
2019-01-05T08:30:58.607Z,98.10
2019-01-05T08:34:15.824Z,97.80
2019-01-05T08:37:27.838Z,97.70
2019-01-05T08:40:29.694Z,97.70
2019-01-05T08:43:40.674Z,97.70
2019-01-05T08:46:54.598Z,97.70
2019-01-05T08:50:11.378Z,98.10
2019-01-05T08:53:14.881Z,96.70
2019-01-05T08:56:13.746Z,96.00
2019-01-05T08:59:08.026Z,95.10
2019-01-05T09:02:22.441Z,94.60
2019-01-05T09:05:19.410Z,93.60
2019-01-05T09:08:13.657Z,92.10
2019-01-05T09:10:52.668Z,90.30
2019-01-05T09:14:07.750Z,88.50
2019-01-05T09:17:06.882Z,85.60
2019-01-05T09:19:58.110Z,83.80
2019-01-05T09:23:10.621Z,81.10
2019-01-05T09:26:07.750Z,78.50
2019-01-05T09:29:10.902Z,74.40
2019-01-05T09:32:19.731Z,71.20
2019-01-05T09:35:39.570Z,69.80
2019-01-05T09:38:46.430Z,68.60
2019-01-05T09:41:39.366Z,71.90
2019-01-05T09:44:29.818Z,74.40
2019-01-05T09:47:34.758Z,76.50
2019-01-05T09:50:42.831Z,77.70
2019-01-05T09:53:49.566Z,76.80
2019-01-05T09:56:57.218Z,79.00
2019-01-05T09:59:46.894Z,78.90
2019-01-05T10:02:50.720Z,78.30
2019-01-05T10:05:29.695Z,78.80
2019-01-05T10:08:14.826Z,78.70
2019-01-05T10:11:07.329Z,77.00
2019-01-05T10:13:55.794Z,75.70
2019-01-05T10:17:02.334Z,76.90
2019-01-05T10:20:04.563Z,75.40
2019-01-05T10:23:15.038Z,76.20
2019-01-05T10:26:14.298Z,75.60
2019-01-05T10:29:10.101Z,77.30
2019-01-05T10:32:31.543Z,76.20
2019-01-05T10:35:37.698Z,76.00
2019-01-05T10:38:28.948Z,74.40
2019-01-05T10:41:32.087Z,73.30
2019-01-05T10:44:51.130Z,73.40
2019-01-05T10:48:14.582Z,73.80
2019-01-05T10:51:15.986Z,74.80
2019-01-05T10:54:27.110Z,76.80
2019-01-05T10:57:31.318Z,77.40
2019-01-05T11:00:36.203Z,78.60
2019-01-05T11:03:48.752Z,81.70
2019-01-05T11:06:28.000Z,80.50
2019-01-05T11:09:27.748Z,78.40
2019-01-05T11:12:25.760Z,77.60
2019-01-05T11:15:35.610Z,75.50
2019-01-05T11:18:20.594Z,72.70
2019-01-05T11:21:27.430Z,70.40
2019-01-05T11:24:21.718Z,72.30
2019-01-05T11:27:40.051Z,73.00
2019-01-05T11:30:30.700Z,72.70
2019-01-05T11:33:21.621Z,73.00
2019-01-05T11:36:30.695Z,71.50
2019-01-05T11:39:21.957Z,70.00
2019-01-05T11:42:12.537Z,70.60
2019-01-05T11:45:08.426Z,69.20
2019-01-05T11:48:03.634Z,69.40
2019-01-05T11:51:14.966Z,68.90
2019-01-05T11:54:36.276Z,68.30
2019-01-05T11:57:56.588Z,67.70
2019-01-05T12:01:02.380Z,68.60
2019-01-05T12:03:55.008Z,69.30
2019-01-05T12:06:43.243Z,68.50
2019-01-05T12:09:52.630Z,68.10
2019-01-05T12:12:54.202Z,68.80
2019-01-05T12:15:46.726Z,70.40
2019-01-05T12:18:43.802Z,70.00
2019-01-05T12:21:51.675Z,70.80
2019-01-05T12:25:16.895Z,71.00
2019-01-05T12:28:06.194Z,73.70
2019-01-05T12:31:06.539Z,74.20
2019-01-05T12:33:57.178Z,75.50
2019-01-05T12:36:54.530Z,76.30
2019-01-05T12:40:00.998Z,77.80
2019-01-05T12:43:18.658Z,79.20
2019-01-05T12:46:03.926Z,78.60
2019-01-05T12:49:19.614Z,80.80
2019-01-05T12:52:17.102Z,80.70
2019-01-05T12:55:11.358Z,81.40
2019-01-05T12:58:35.895Z,82.10
2019-01-05T13:01:48.782Z,82.50
2019-01-05T13:04:44.998Z,83.50
2019-01-05T13:07:46.946Z,84.80
2019-01-05T13:10:55.174Z,84.50
2019-01-05T13:13:44.671Z,84.80
2019-01-05T13:16:23.367Z,85.30
2019-01-05T13:19:24.035Z,86.70
2019-01-05T13:22:08.562Z,86.80
2019-01-05T13:24:59.496Z,86.00
2019-01-05T13:28:07.783Z,87.10
2019-01-05T13:31:14.162Z,87.50
2019-01-05T13:34:11.382Z,87.20
2019-01-05T13:37:01.253Z,87.30
2019-01-05T13:39:55.998Z,88.00
2019-01-05T13:43:02.392Z,88.30
2019-01-05T13:46:03.998Z,88.60
2019-01-05T13:49:16.171Z,88.40
2019-01-05T13:52:10.366Z,89.40
2019-01-05T13:54:42.126Z,89.30
2019-01-05T13:57:12.280Z,88.60
2019-01-05T13:59:44.798Z,88.70
2019-01-05T14:02:26.759Z,88.50
2019-01-05T14:04:56.790Z,88.60
2019-01-05T14:07:38.771Z,88.30
2019-01-05T14:10:15.574Z,88.40
2019-01-05T14:12:54.730Z,89.10
2019-01-05T14:15:43.110Z,88.90
2019-01-05T14:18:15.978Z,89.00
2019-01-05T14:21:02.490Z,89.50
2019-01-05T14:23:35.485Z,89.70
2019-01-05T14:26:17.814Z,89.50
2019-01-05T14:29:03.528Z,90.00
2019-01-05T14:31:42.826Z,89.70
2019-01-05T14:34:31.354Z,90.10
2019-01-05T14:37:04.182Z,90.10
2019-01-05T14:39:34.218Z,90.20
2019-01-05T14:42:04.244Z,90.20
2019-01-05T14:44:34.274Z,90.30
2019-01-05T14:47:04.309Z,90.30
2019-01-05T14:49:50.986Z,90.60
2019-01-05T14:52:21.018Z,90.90
2019-01-05T14:54:54.014Z,90.90
2019-01-05T14:57:36.151Z,91.10
2019-01-05T15:00:15.466Z,91.30
2019-01-05T15:02:48.438Z,91.30
2019-01-05T15:05:18.467Z,91.60
2019-01-05T15:07:48.492Z,91.70
2019-01-05T15:10:18.971Z,91.70
2019-01-05T15:13:05.214Z,91.60
2019-01-05T15:15:50.413Z,91.60
2019-01-05T15:18:26.230Z,91.60
2019-01-05T15:20:58.769Z,91.80
2019-01-05T15:23:28.790Z,91.70
2019-01-05T15:26:01.606Z,91.70
2019-01-05T15:28:31.628Z,91.90
2019-01-05T15:31:01.654Z,91.90
2019-01-05T15:33:48.078Z,91.90
2019-01-05T15:36:34.333Z,92.00
2019-01-05T15:39:22.798Z,92.10
2019-01-05T15:42:04.874Z,92.20
2019-01-05T15:44:51.210Z,92.30
2019-01-05T15:47:24.117Z,92.50
2019-01-05T15:49:54.538Z,92.50
2019-01-05T15:52:24.562Z,92.70
2019-01-05T15:55:06.659Z,92.40
2019-01-05T15:57:52.964Z,92.50
2019-01-05T16:00:25.762Z,92.40
2019-01-05T16:03:11.078Z,92.30
2019-01-05T16:05:59.070Z,92.50
2019-01-05T16:08:35.019Z,92.40
2019-01-05T16:11:14.038Z,92.60
2019-01-05T16:14:02.171Z,92.50
2019-01-05T16:16:41.342Z,92.50
2019-01-05T16:19:14.134Z,92.50
2019-01-05T16:21:47.526Z,92.50
2019-01-05T16:24:32.638Z,92.60
2019-01-05T16:27:02.795Z,92.70
2019-01-05T16:29:35.790Z,92.70
2019-01-05T16:32:11.953Z,92.60
2019-01-05T16:34:50.934Z,92.70
2019-01-05T16:37:39.458Z,92.70
2019-01-05T16:40:16.574Z,92.70
2019-01-05T16:42:46.694Z,92.70
2019-01-05T16:45:22.777Z,92.90
2019-01-05T16:47:52.817Z,92.90
2019-01-05T16:50:39.376Z,93.10
2019-01-05T16:53:09.524Z,93.20
2019-01-05T16:55:39.550Z,93.30
2019-01-05T16:58:21.925Z,93.30
2019-01-05T17:00:54.638Z,93.90
2019-01-05T17:03:40.098Z,94.00
2019-01-05T17:06:28.199Z,94.00
2019-01-05T17:09:13.321Z,94.10
2019-01-05T17:11:43.350Z,94.20
2019-01-05T17:14:29.928Z,94.40
2019-01-05T17:16:59.955Z,94.40
2019-01-05T17:19:39.454Z,94.70
2019-01-05T17:22:18.458Z,94.50
2019-01-05T17:24:57.361Z,94.80
2019-01-05T17:27:39.390Z,94.60
2019-01-05T17:30:27.907Z,94.60
2019-01-05T17:33:07.077Z,94.60
2019-01-05T17:35:39.798Z,94.80
2019-01-05T17:38:26.118Z,94.80
2019-01-05T17:40:56.230Z,94.70
2019-01-05T17:43:42.802Z,94.80
2019-01-05T17:46:18.777Z,95.00
2019-01-05T17:49:05.405Z,95.30
2019-01-05T17:51:35.470Z,95.00
2019-01-05T17:54:21.690Z,95.00
2019-01-05T17:57:06.808Z,95.20
2019-01-05T17:59:49.008Z,95.50
2019-01-05T18:02:19.031Z,95.10
2019-01-05T18:07:56.121Z,95.30
2019-01-05T18:10:44.150Z,95.40
2019-01-05T18:13:26.180Z,95.30
2019-01-05T18:16:12.438Z,95.10
2019-01-05T18:18:45.350Z,95.10
2019-01-05T18:21:21.375Z,95.60
2019-01-05T18:24:03.795Z,95.50
2019-01-05T18:26:36.818Z,95.90
2019-01-05T18:29:23.419Z,95.90
2019-01-05T18:32:05.350Z,95.80
2019-01-05T18:34:41.866Z,95.80
2019-01-05T18:37:14.526Z,95.70
2019-01-05T18:40:01.161Z,95.70
2019-01-05T18:42:40.455Z,95.70
2019-01-05T18:45:27.171Z,95.40
2019-01-05T18:47:57.220Z,95.40
2019-01-05T18:50:33.295Z,95.60
2019-01-05T18:53:15.222Z,95.70
2019-01-05T18:55:54.293Z,95.70
2019-01-05T18:58:27.071Z,95.70
2019-01-05T19:00:59.819Z,95.70
2019-01-05T19:03:44.890Z,95.60
2019-01-05T19:06:17.878Z,95.60
2019-01-05T19:09:04.040Z,95.50
2019-01-05T19:11:41.182Z,95.40
2019-01-05T19:14:20.384Z,95.40
2019-01-05T19:17:05.692Z,95.30
2019-01-05T19:19:54.360Z,95.30
2019-01-05T19:22:27.308Z,95.20
2019-01-05T19:24:59.899Z,95.30
2019-01-05T19:27:38.762Z,95.30
2019-01-05T19:30:26.034Z,95.30
2019-01-05T19:33:08.494Z,95.40
2019-01-05T19:35:54.727Z,95.30
2019-01-05T19:38:48.215Z,95.30
2019-01-05T19:41:29.425Z,95.20
2019-01-05T19:44:17.900Z,95.10
2019-01-05T19:47:03.022Z,95.10
2019-01-05T19:49:51.372Z,95.20
2019-01-05T19:52:24.247Z,95.20
2019-01-05T19:54:57.114Z,95.20
2019-01-05T19:57:35.902Z,95.00
2019-01-05T20:00:11.246Z,95.00
2019-01-05T20:02:50.298Z,95.20
2019-01-05T20:05:36.646Z,95.30
2019-01-05T20:08:19.072Z,95.30
2019-01-05T20:11:05.645Z,95.30
2019-01-05T20:13:41.697Z,95.20
2019-01-05T20:16:17.689Z,95.30
2019-01-05T20:18:47.714Z,95.20
2019-01-05T20:21:30.288Z,95.00
2019-01-05T20:24:00.308Z,95.00
2019-01-05T20:26:30.330Z,95.30
2019-01-05T20:29:06.423Z,95.10
2019-01-05T20:31:51.566Z,95.00
2019-01-05T20:34:27.579Z,94.90
2019-01-05T20:36:57.671Z,94.80
2019-01-05T20:39:27.703Z,94.80
2019-01-05T20:42:26.137Z,94.80
2019-01-05T20:45:14.271Z,94.80
2019-01-05T20:48:00.544Z,94.80
2019-01-05T20:50:48.819Z,94.70
2019-01-05T20:53:24.909Z,94.70
2019-01-05T20:56:11.342Z,94.60
2019-01-05T20:58:57.366Z,94.50
2019-01-05T21:01:30.414Z,94.40
2019-01-05T21:04:18.827Z,94.30
2019-01-05T21:06:57.517Z,94.20
2019-01-05T21:09:39.794Z,94.20
2019-01-05T21:12:15.346Z,94.10
2019-01-05T21:14:45.486Z,94.10
2019-01-05T21:17:27.863Z,94.10
2019-01-05T21:20:03.942Z,94.10
2019-01-05T21:22:33.966Z,94.20
2019-01-05T21:25:03.999Z,94.10
2019-01-05T21:27:39.819Z,94.10
2019-01-05T21:30:11.378Z,94.20
2019-01-05T21:32:50.431Z,94.20
2019-01-05T21:35:36.629Z,94.10
2019-01-05T21:38:07.004Z,94.10
2019-01-05T21:40:37.024Z,94.00
2019-01-05T21:43:16.220Z,94.00
2019-01-05T21:45:46.254Z,93.90
2019-01-05T21:48:32.968Z,93.90
2019-01-05T21:51:21.045Z,93.90
2019-01-05T21:54:06.401Z,93.90
2019-01-05T21:56:36.438Z,94.00
2019-01-05T21:59:06.458Z,94.00
2019-01-05T22:01:51.574Z,93.90
2019-01-05T22:04:38.160Z,94.00
2019-01-05T22:07:08.220Z,94.00
2019-01-05T22:09:53.266Z,94.00
2019-01-05T22:12:23.586Z,94.10
2019-01-05T22:15:11.986Z,94.10
2019-01-05T22:17:57.522Z,94.20
2019-01-05T22:20:33.447Z,94.60
2019-01-05T22:23:06.166Z,95.00
2019-01-05T22:25:52.415Z,94.90
2019-01-05T22:28:25.489Z,95.10
2019-01-05T22:30:58.208Z,94.90
2019-01-05T22:33:40.458Z,94.90
2019-01-05T22:36:25.316Z,94.80
2019-01-05T22:38:55.454Z,94.70
2019-01-05T22:41:28.330Z,94.70
2019-01-05T22:44:04.462Z,94.80
2019-01-05T22:46:50.794Z,94.90
2019-01-05T22:49:36.866Z,94.90
2019-01-05T22:52:12.875Z,94.90
2019-01-05T22:54:45.694Z,95.00
2019-01-05T22:57:31.191Z,95.20
2019-01-05T23:00:01.666Z,95.20
2019-01-05T23:02:34.651Z,95.20
2019-01-05T23:05:22.605Z,95.30
2019-01-05T23:08:08.821Z,95.20
2019-01-05T23:10:41.698Z,95.00
2019-01-05T23:13:14.538Z,95.40
2019-01-05T23:15:53.900Z,95.50
2019-01-05T23:18:38.895Z,95.80
2019-01-05T23:21:09.390Z,95.80
2019-01-05T23:23:41.930Z,96.10
2019-01-05T23:26:37.302Z,96.40
2019-01-05T23:29:25.527Z,96.70
2019-01-05T23:32:13.818Z,96.80
2019-01-05T23:34:46.798Z,96.60
2019-01-05T23:37:33.266Z,96.10
2019-01-05T23:40:17.015Z,95.80
2019-01-05T23:42:52.866Z,95.60
2019-01-05T23:45:29.034Z,95.80
2019-01-05T23:48:04.518Z,95.90
2019-01-05T23:50:40.381Z,95.90
2019-01-05T23:53:26.746Z,95.80
2019-01-05T23:56:03.038Z,95.80
2019-01-05T23:58:47.935Z,95.70
